Time;durP1;ratioP1;P1;durP2;ratioP2;P2;SDS_P1;SDS_P2;PMS_P1;PMS_P2;Temp;Humidity;BMP_temperature;BMP_pressure;BME280_temperature;BME280_humidity;BME280_pressure;Samples;Min_cycle;Max_cycle;Signal;HPM_P1;HPM_P2
2023/08/10 00:01:26;;;;;;;5.85;0.57;;;;;;;11.03;53.46;101964.53;4989543;28;20123;-63
2023/08/10 00:03:52;;;;;;;1.83;0.50;;;;;;;10.96;52.91;101964.75;4992926;28;20046;-64
2023/08/10 00:06:17;;;;;;;3.33;0.95;;;;;;;10.90;53.01;101965.72;4988452;28;20034;-64
2023/08/10 00:08:43;;;;;;;3.72;0.60;;;;;;;10.81;53.06;101963.31;4991234;28;20276;-63
2023/08/10 00:11:12;;;;;;;2.42;0.80;;;;;;;10.82;53.04;101965.06;4995561;28;20113;-63
2023/08/10 00:13:37;;;;;;;3.30;0.73;;;;;;;10.80;53.19;101972.06;4999501;28;20050;-65
2023/08/10 00:16:03;;;;;;;3.28;0.80;;;;;;;10.74;53.13;101965.22;4990429;28;20041;-65
2023/08/10 00:18:29;;;;;;;1.25;0.70;;;;;;;10.70;52.92;101965.31;4981455;28;20438;-64
2023/08/10 00:20:57;;;;;;;3.10;0.50;;;;;;;10.64;53.25;101967.19;4989691;28;20038;-63
2023/08/10 00:23:22;;;;;;;3.17;0.90;;;;;;;10.54;53.27;101968.28;4986219;28;20041;-63
2023/08/10 00:25:48;;;;;;;4.70;0.82;;;;;;;10.42;53.55;101976.41;4990241;28;20874;-64
2023/08/10 00:28:15;;;;;;;4.05;0.60;;;;;;;10.44;53.32;101974.63;4991711;28;20069;-64
2023/08/10 00:30:40;;;;;;;3.30;0.47;;;;;;;10.51;53.17;101964.88;4990549;28;20030;-64
2023/08/10 00:33:07;;;;;;;1.33;0.52;;;;;;;10.50;53.15;101979.69;4990843;28;20146;-64
2023/08/10 00:35:32;;;;;;;2.00;0.80;;;;;;;10.43;53.36;101967.66;4987850;28;20405;-64
2023/08/10 00:37:58;;;;;;;3.45;1.10;;;;;;;10.42;53.41;101969.41;4990291;28;20120;-68
2023/08/10 00:40:24;;;;;;;2.70;0.52;;;;;;;10.46;53.54;101975.44;4989270;28;20169;-68
2023/08/10 00:42:49;;;;;;;2.83;0.73;;;;;;;10.44;53.27;101972.00;4985554;28;20049;-68
2023/08/10 00:45:15;;;;;;;5.22;0.47;;;;;;;10.50;53.28;101974.47;4993451;28;20040;-72
2023/08/10 00:47:41;;;;;;;3.35;0.60;;;;;;;10.55;53.68;101988.31;4993426;28;20048;-71
2023/08/10 00:50:08;;;;;;;4.60;0.80;;;;;;;10.53;53.55;101984.88;4988465;28;21040;-72
2023/08/10 00:52:34;;;;;;;2.55;0.52;;;;;;;10.46;53.65;101977.19;4992491;28;20107;-72
2023/08/10 00:55:01;;;;;;;5.07;0.85;;;;;;;10.49;54.04;101983.22;4990644;28;20500;-72
2023/08/10 00:57:27;;;;;;;2.83;0.70;;;;;;;10.62;53.55;101979.44;4988338;28;20037;-72
2023/08/10 00:59:53;;;;;;;2.88;0.50;;;;;;;10.67;53.38;101983.69;4967703;28;20108;-72
2023/08/10 01:02:19;;;;;;;2.30;0.55;;;;;;;10.66;53.19;101989.81;4971389;28;20037;-72
2023/08/10 01:04:45;;;;;;;3.38;0.60;;;;;;;10.51;53.08;101980.56;4990377;28;20045;-73
2023/08/10 01:07:30;;;;;;;2.10;0.88;;;;;;;10.25;53.63;101979.38;4987494;28;20038;-72
2023/08/10 01:10:10;;;;;;;2.55;1.30;;;;;;;10.27;53.77;101987.19;4985073;28;20057;-66
2023/08/10 01:13:04;;;;;;;3.10;0.93;;;;;;;10.21;53.71;101986.44;4983206;28;20144;-67
2023/08/10 01:15:38;;;;;;;2.85;0.70;;;;;;;10.20;53.94;101989.06;5004730;28;20065;-67
2023/08/10 01:18:10;;;;;;;2.20;0.60;;;;;;;10.15;53.80;101989.16;4988705;28;20073;-66
2023/08/10 01:20:37;;;;;;;1.73;0.30;;;;;;;10.14;53.82;101982.19;4987567;28;20521;-69
2023/08/10 01:23:22;;;;;;;3.35;0.60;;;;;;;10.18;53.70;101989.09;4991655;28;20038;-66
2023/08/10 01:25:48;;;;;;;4.38;1.25;;;;;;;10.07;54.15;101984.97;4990626;28;20590;-67
2023/08/10 01:28:15;;;;;;;3.50;0.40;;;;;;;10.01;54.56;101996.41;4992779;28;20490;-67
2023/08/10 01:30:41;;;;;;;2.47;1.08;;;;;;;10.02;54.41;101991.16;5004309;28;20511;-67
2023/08/10 01:33:08;;;;;;;1.80;1.00;;;;;;;10.11;54.59;101995.34;4991187;28;20042;-67
2023/08/10 01:35:36;;;;;;;2.08;0.60;;;;;;;10.21;54.23;101998.59;4999235;28;20060;-67
2023/08/10 01:38:02;;;;;;;7.05;0.77;;;;;;;10.14;54.25;101992.66;4990745;28;20045;-67
2023/08/10 01:40:28;;;;;;;3.15;0.47;;;;;;;10.24;54.02;101993.34;5006604;28;20172;-64
2023/08/10 01:42:54;;;;;;;1.13;0.80;;;;;;;10.23;54.24;101991.59;4970312;28;20034;-65
2023/08/10 01:45:21;;;;;;;4.32;0.47;;;;;;;10.19;54.15;101993.44;4989716;28;20084;-66
2023/08/10 01:47:56;;;;;;;1.30;0.60;;;;;;;10.18;54.04;102004.75;4971955;28;20041;-67
2023/08/10 01:50:24;;;;;;;2.38;0.63;;;;;;;10.16;54.03;101990.88;4988771;28;20022;-66
2023/08/10 01:52:55;;;;;;;4.68;0.50;;;;;;;10.07;54.07;101998.88;4988973;28;20853;-67
2023/08/10 01:55:20;;;;;;;3.42;0.50;;;;;;;9.98;54.09;101999.06;4986416;28;20576;-65
2023/08/10 01:57:47;;;;;;;1.10;0.45;;;;;;;9.87;54.05;101998.44;4993204;28;20180;-66
2023/08/10 02:00:13;;;;;;;2.90;0.63;;;;;;;9.74;54.23;101997.75;4989379;28;20107;-68
2023/08/10 02:02:41;;;;;;;2.42;0.50;;;;;;;9.68;54.27;101992.63;4988237;28;20111;-69
2023/08/10 02:05:10;;;;;;;2.05;0.73;;;;;;;9.51;54.45;102004.25;5006669;28;20378;-70
2023/08/10 02:07:36;;;;;;;2.30;0.80;;;;;;;9.46;55.08;102002.63;4984245;28;20108;-70
2023/08/10 02:10:01;;;;;;;2.60;0.60;;;;;;;9.54;54.76;101995.50;4971329;28;20266;-70
2023/08/10 02:12:27;;;;;;;1.90;0.82;;;;;;;9.42;55.01;101998.34;4987327;28;20775;-71
2023/08/10 02:14:52;;;;;;;1.88;0.50;;;;;;;9.38;55.16;102000.97;4972063;28;20129;-71
2023/08/10 02:17:18;;;;;;;4.18;0.73;;;;;;;9.30;55.40;101997.66;4987120;28;20026;-71
2023/08/10 02:19:43;;;;;;;1.45;0.50;;;;;;;9.28;55.48;101999.44;4989524;28;20034;-72
2023/08/10 02:22:09;;;;;;;2.97;0.70;;;;;;;9.25;55.46;101999.47;4984628;28;20033;-71
2023/08/10 02:24:35;;;;;;;3.47;0.50;;;;;;;9.30;55.46;102002.88;4982968;28;20251;-72
2023/08/10 02:27:01;;;;;;;4.82;0.65;;;;;;;9.28;55.19;101999.44;4989795;28;20030;-72
2023/08/10 02:29:26;;;;;;;1.67;0.30;;;;;;;9.23;55.47;102006.50;4989799;28;20042;-71
2023/08/10 02:31:51;;;;;;;2.00;0.63;;;;;;;9.18;55.33;101998.72;4987067;28;20026;-71
2023/08/10 02:34:17;;;;;;;4.45;0.70;;;;;;;9.06;55.70;102003.28;5001526;28;20038;-66
2023/08/10 02:36:43;;;;;;;4.43;0.40;;;;;;;9.05;55.49;102010.22;4986742;28;20112;-69
2023/08/10 02:39:09;;;;;;;2.50;0.55;;;;;;;9.05;55.56;102011.97;5001689;28;20401;-67
2023/08/10 02:41:35;;;;;;;1.95;0.60;;;;;;;9.00;55.49;102009.44;4989623;28;20257;-70
2023/08/10 02:44:01;;;;;;;1.95;0.40;;;;;;;8.95;55.74;102006.03;4988637;28;20095;-68
2023/08/10 02:46:26;;;;;;;2.22;0.38;;;;;;;9.04;55.97;102005.91;4987806;28;20568;-68
2023/08/10 02:48:53;;;;;;;3.35;0.40;;;;;;;9.07;55.83;102010.19;4990411;28;21660;-68
2023/08/10 02:51:19;;;;;;;2.45;0.93;;;;;;;9.13;55.81;102007.50;4982358;28;20096;-68
2023/08/10 02:53:45;;;;;;;1.42;0.50;;;;;;;9.21;55.33;102003.03;4984572;28;20908;-66
2023/08/10 02:56:11;;;;;;;2.28;0.63;;;;;;;9.20;55.27;102006.50;5003913;28;20076;-68
2023/08/10 02:58:36;;;;;;;4.47;0.77;;;;;;;9.22;55.13;102009.97;4970700;28;20085;-68
2023/08/10 03:01:06;;;;;;;2.88;0.70;;;;;;;9.20;55.37;102006.50;4988427;28;20033;-66
2023/08/10 03:03:32;;;;;;;1.92;0.30;;;;;;;9.20;55.18;102009.13;4990178;28;20500;-66
2023/08/10 03:05:57;;;;;;;2.55;0.60;;;;;;;9.06;55.25;102008.50;4990390;28;20080;-65
2023/08/10 03:08:23;;;;;;;2.65;0.50;;;;;;;9.04;55.44;102015.47;4984146;28;20104;-66
2023/08/10 03:10:50;;;;;;;2.03;0.52;;;;;;;9.08;55.47;102017.16;4989861;28;20519;-65
2023/08/10 03:13:17;;;;;;;4.15;0.45;;;;;;;9.07;55.77;102018.88;4978096;28;20073;-66
2023/08/10 03:15:42;;;;;;;2.72;0.43;;;;;;;9.15;55.60;102017.03;4984755;28;20495;-66
2023/08/10 03:18:08;;;;;;;5.82;1.00;;;;;;;9.16;55.69;102018.75;5004485;28;20286;-66
2023/08/10 03:20:34;;;;;;;3.70;0.63;;;;;;;9.16;55.56;102017.88;4986130;28;21110;-67
2023/08/10 03:22:59;;;;;;;2.17;0.52;;;;;;;9.18;55.63;102030.00;4989204;28;20819;-68
2023/08/10 03:25:25;;;;;;;0.90;0.40;;;;;;;9.30;55.56;102022.91;4989920;28;20040;-68
2023/08/10 03:27:50;;;;;;;2.78;0.60;;;;;;;9.19;55.53;102020.47;4988521;28;20037;-68
2023/08/10 03:30:18;;;;;;;2.85;1.00;;;;;;;9.18;55.62;102013.50;4984875;28;20034;-67
2023/08/10 03:32:44;;;;;;;4.97;0.93;;;;;;;9.24;55.68;102012.56;4986876;28;20053;-64
2023/08/10 03:35:10;;;;;;;2.55;0.60;;;;;;;9.32;55.80;102021.97;4984769;28;20044;-68
2023/08/10 03:37:37;;;;;;;2.08;0.68;;;;;;;9.40;55.58;102025.31;5001813;28;20037;-70
2023/08/10 03:40:03;;;;;;;2.17;0.60;;;;;;;9.41;55.60;102026.19;5008007;28;20026;-66
2023/08/10 03:42:28;;;;;;;3.78;1.23;;;;;;;9.47;55.17;102022.59;4971274;28;20037;-67
2023/08/10 03:44:55;;;;;;;3.58;0.70;;;;;;;9.49;55.25;102023.44;5004093;28;20057;-67
2023/08/10 03:47:22;;;;;;;2.78;1.40;;;;;;;9.46;55.19;102028.72;4988408;28;20400;-67
2023/08/10 03:49:48;;;;;;;2.88;0.73;;;;;;;9.46;55.25;102026.13;4995421;28;20053;-68
2023/08/10 03:52:14;;;;;;;10.00;1.58;;;;;;;9.49;54.91;102026.06;4987316;28;20054;-68
2023/08/10 03:54:40;;;;;;;3.70;0.55;;;;;;;9.49;54.95;102026.06;4974853;28;20034;-68
2023/08/10 03:57:06;;;;;;;2.75;0.70;;;;;;;9.50;54.88;102032.97;5012543;28;20037;-67
2023/08/10 03:59:32;;;;;;;6.18;1.00;;;;;;;9.46;55.00;102034.78;4987255;28;20056;-67
2023/08/10 04:01:58;;;;;;;3.65;1.00;;;;;;;9.37;55.21;102038.41;4971234;28;20060;-68
2023/08/10 04:04:23;;;;;;;6.50;0.93;;;;;;;9.33;55.22;102039.34;4979873;28;20052;-67
2023/08/10 04:06:49;;;;;;;1.63;0.85;;;;;;;9.23;55.07;102045.63;4993569;28;20038;-68
2023/08/10 04:09:14;;;;;;;1.88;0.40;;;;;;;9.18;55.19;102044.81;5002066;28;20576;-68
2023/08/10 04:11:40;;;;;;;1.88;0.50;;;;;;;9.27;55.56;102049.88;4989788;28;20040;-69
2023/08/10 04:14:05;;;;;;;6.88;1.02;;;;;;;9.34;55.20;102048.03;5005328;28;20088;-68
2023/08/10 04:16:31;;;;;;;3.53;0.80;;;;;;;9.37;55.36;102048.84;4988331;28;20026;-67
2023/08/10 04:18:57;;;;;;;2.15;0.40;;;;;;;9.27;55.41;102052.47;4975698;28;20041;-68
2023/08/10 04:21:23;;;;;;;1.92;0.95;;;;;;;9.36;55.65;102044.50;5002448;28;20124;-68
2023/08/10 04:23:48;;;;;;;4.75;0.55;;;;;;;9.38;54.96;102054.94;4970503;28;20595;-67
2023/08/10 04:26:14;;;;;;;2.28;1.08;;;;;;;9.46;55.11;102047.84;4992198;28;20038;-66
2023/08/10 04:28:41;;;;;;;3.80;0.52;;;;;;;9.49;55.15;102045.16;4989777;28;20441;-67
2023/08/10 04:31:07;;;;;;;2.33;0.40;;;;;;;9.57;54.82;102053.75;4991537;28;20244;-67
2023/08/10 04:33:34;;;;;;;2.35;0.77;;;;;;;9.59;54.90;102045.91;4984944;28;20057;-66
2023/08/10 04:35:59;;;;;;;3.92;0.73;;;;;;;9.59;54.79;102051.13;4993316;28;20172;-67
2023/08/10 04:38:26;;;;;;;2.17;1.38;;;;;;;9.70;54.74;102057.00;4988800;28;20069;-65
2023/08/10 04:40:51;;;;;;;4.43;0.63;;;;;;;9.78;54.90;102052.50;4991981;28;20026;-64
2023/08/10 04:43:17;;;;;;;5.78;0.65;;;;;;;9.90;54.60;102054.06;4984657;28;20542;-64
2023/08/10 04:45:46;;;;;;;4.63;0.70;;;;;;;9.58;54.67;102057.22;4988213;28;20452;-66
2023/08/10 04:48:13;;;;;;;3.22;0.60;;;;;;;9.72;55.11;102057.84;4994232;28;20038;-64
2023/08/10 04:50:38;;;;;;;4.03;1.15;;;;;;;9.79;55.02;102049.03;4984132;28;21485;-66
2023/08/10 04:53:04;;;;;;;2.65;0.70;;;;;;;9.90;54.33;102056.69;4990737;28;20184;-66
2023/08/10 04:55:30;;;;;;;4.57;0.80;;;;;;;9.92;54.13;102049.69;4989551;28;20045;-65
2023/08/10 04:57:55;;;;;;;6.68;0.80;;;;;;;10.09;54.41;102051.13;4987755;28;20046;-65
2023/08/10 05:00:23;;;;;;;7.45;0.70;;;;;;;10.22;53.99;102058.69;5004750;28;20550;-64
2023/08/10 05:02:50;;;;;;;2.00;1.05;;;;;;;10.37;53.48;102061.88;4989275;28;20141;-66
2023/08/10 05:05:17;;;;;;;4.68;1.00;;;;;;;10.58;53.36;102056.19;4984912;28;20044;-65
2023/08/10 05:07:42;;;;;;;4.55;0.50;;;;;;;10.73;52.65;102046.31;4970057;28;20193;-66
2023/08/10 05:10:08;;;;;;;5.55;0.77;;;;;;;10.81;52.97;102058.34;4987699;28;20396;-66
2023/08/10 05:12:36;;;;;;;7.40;0.45;;;;;;;11.12;52.23;102056.78;4985479;28;20049;-72
2023/08/10 05:15:03;;;;;;;1.35;0.38;;;;;;;11.53;51.27;102062.78;4993807;28;20029;-75
2023/08/10 05:17:29;;;;;;;3.22;0.55;;;;;;;11.69;51.16;102061.50;4990513;28;20089;-73
2023/08/10 05:19:55;;;;;;;2.70;0.40;;;;;;;12.85;49.25;102064.44;4990456;28;20542;-75
2023/08/10 05:22:23;;;;;;;1.83;0.40;;;;;;;13.15;48.02;102053.88;4972185;28;20029;-76
2023/08/10 05:24:49;;;;;;;2.55;0.30;;;;;;;13.37;47.05;102054.88;4992188;28;20038;-76
2023/08/10 05:27:14;;;;;;;2.25;0.40;;;;;;;13.32;45.98;102062.06;4991093;28;20049;-75
2023/08/10 05:29:40;;;;;;;2.38;0.47;;;;;;;13.64;47.21;102054.91;4992026;28;20625;-76
2023/08/10 05:32:07;;;;;;;6.88;0.40;;;;;;;13.56;46.27;102049.84;4991389;28;20103;-66
2023/08/10 05:34:33;;;;;;;4.63;1.08;;;;;;;15.74;42.90;102054.72;4982430;28;20053;-66
2023/08/10 05:36:58;;;;;;;2.17;0.75;;;;;;;18.10;37.84;102052.25;4987927;28;20076;-67
2023/08/10 05:39:24;;;;;;;2.67;0.63;;;;;;;18.75;36.18;102052.25;4985706;28;20052;-66
2023/08/10 05:41:49;;;;;;;2.40;0.20;;;;;;;18.13;35.98;102056.53;4989874;28;20380;-67
2023/08/10 05:44:15;;;;;;;8.30;1.15;;;;;;;17.75;39.38;102048.81;4990112;28;20524;-65
2023/08/10 05:46:40;;;;;;;0.60;0.20;;;;;;;20.15;35.01;102053.78;4986256;28;20038;-66
2023/08/10 05:49:06;;;;;;;2.55;0.20;;;;;;;21.95;30.86;102049.00;4977467;28;20044;-65
2023/08/10 05:51:31;;;;;;;2.53;0.25;;;;;;;22.20;29.91;102049.13;4986105;28;20038;-66
2023/08/10 05:53:56;;;;;;;4.10;0.20;;;;;;;21.48;31.97;102047.00;4987107;28;20037;-65
2023/08/10 05:56:22;;;;;;;3.05;0.20;;;;;;;20.45;32.88;102045.75;5004455;28;20030;-64
2023/08/10 05:58:47;;;;;;;2.00;0.22;;;;;;;19.51;34.50;102044.34;4990000;28;20140;-66
2023/08/10 06:01:13;;;;;;;4.05;0.77;;;;;;;18.84;35.10;102048.25;4988021;28;20041;-65
2023/08/10 06:03:39;;;;;;;1.67;0.20;;;;;;;17.45;38.37;102054.72;4981800;28;20072;-65
2023/08/10 06:06:06;;;;;;;6.45;1.40;;;;;;;17.37;39.84;102046.31;4993162;28;20120;-67
2023/08/10 06:08:33;;;;;;;3.80;0.20;;;;;;;18.66;37.25;102039.53;4985226;28;20448;-66
2023/08/10 06:11:00;;;;;;;2.05;0.20;;;;;;;20.97;32.88;102038.88;4990930;28;20033;-66
2023/08/10 06:13:25;;;;;;;2.33;0.30;;;;;;;23.52;29.78;102040.25;4985048;28;20050;-68
2023/08/10 06:15:51;;;;;;;1.45;0.13;;;;;;;24.95;26.59;102044.00;5004036;28;20031;-69
2023/08/10 06:18:16;;;;;;;5.03;0.30;;;;;;;25.98;25.21;102048.66;4989282;28;20448;-68
2023/08/10 06:20:42;;;;;;;7.50;0.20;;;;;;;26.53;24.09;102043.72;4985084;28;20053;-70
2023/08/10 06:23:08;;;;;;;3.03;0.50;;;;;;;27.83;22.45;102046.06;4990410;28;20552;-70
2023/08/10 06:25:34;;;;;;;1.65;0.47;;;;;;;28.13;22.15;102048.50;4988320;28;20037;-70
2023/08/10 06:28:00;;;;;;;3.35;0.52;;;;;;;28.32;21.68;102050.25;4989695;28;20266;-70
2023/08/10 06:30:25;;;;;;;3.00;0.20;;;;;;;29.59;21.38;102051.84;4999195;28;20655;-67
2023/08/10 06:32:51;;;;;;;4.43;0.20;;;;;;;29.55;20.96;102051.34;4991541;28;20048;-64
2023/08/10 06:35:20;;;;;;;4.90;0.20;;;;;;;29.44;20.32;102054.28;4985990;28;20025;-65
2023/08/10 06:37:48;;;;;;;2.42;0.10;;;;;;;29.55;20.00;102054.03;4997679;28;20091;-65
2023/08/10 06:40:15;;;;;;;2.30;0.13;;;;;;;29.81;19.97;102055.88;4992347;28;20065;-65
2023/08/10 06:42:41;;;;;;;6.25;0.47;;;;;;;27.85;21.50;102057.50;5001630;28;20050;-66
2023/08/10 06:45:14;;;;;;;5.18;0.40;;;;;;;26.99;22.38;102052.13;4991173;28;20284;-67
2023/08/10 06:47:40;;;;;;;5.85;0.25;;;;;;;27.93;22.08;102055.78;4981361;28;20038;-66
2023/08/10 06:50:08;;;;;;;3.88;0.20;;;;;;;29.44;20.44;102059.69;4987606;28;20484;-66
2023/08/10 06:52:34;;;;;;;2.13;1.65;;;;;;;29.92;19.08;102068.22;4983764;28;20041;-68
2023/08/10 06:55:00;;;;;;;2.72;0.20;;;;;;;29.10;19.77;102073.00;4993717;28;20526;-67
2023/08/10 06:57:25;;;;;;;9.20;0.20;;;;;;;29.06;20.36;102075.19;4989681;28;20065;-64
2023/08/10 06:59:51;;;;;;;5.95;0.88;;;;;;;28.76;20.37;102065.66;4984706;28;20406;-67
2023/08/10 07:02:17;;;;;;;2.08;0.10;;;;;;;28.61;20.89;102072.53;5005577;28;20527;-68
2023/08/10 07:04:45;;;;;;;2.78;0.22;;;;;;;29.04;21.09;102079.03;4987377;28;20180;-67
2023/08/10 07:07:12;;;;;;;2.15;0.10;;;;;;;30.26;19.78;102070.88;4982884;28;20030;-66
2023/08/10 07:09:37;;;;;;;8.80;0.68;;;;;;;31.40;18.33;102072.03;4986515;28;20058;-67
2023/08/10 07:12:04;;;;;;;4.88;0.30;;;;;;;30.57;17.92;102073.03;4989778;28;20057;-66
2023/08/10 07:14:32;;;;;;;0.90;0.10;;;;;;;29.00;19.07;102072.28;4974979;28;20052;-65
2023/08/10 07:16:57;;;;;;;3.80;0.28;;;;;;;28.53;19.67;102070.63;5005898;28;20026;-67
2023/08/10 07:19:22;;;;;;;4.28;0.20;;;;;;;28.33;20.00;102073.41;4990275;28;20620;-66
2023/08/10 07:21:48;;;;;;;10.05;0.57;;;;;;;28.64;18.61;102078.50;4990997;28;20040;-67
2023/08/10 07:24:14;;;;;;;3.67;0.20;;;;;;;27.53;19.24;102072.13;4993636;28;20064;-68
2023/08/10 07:26:39;;;;;;;2.03;0.35;;;;;;;27.98;19.25;102075.97;4988969;28;20113;-68
2023/08/10 07:29:05;;;;;;;3.35;0.38;;;;;;;28.47;17.99;102071.22;4992546;28;20129;-69
2023/08/10 07:31:34;;;;;;;3.65;0.30;;;;;;;28.25;19.11;102073.31;4992975;28;20044;-68
2023/08/10 07:33:59;;;;;;;4.72;0.28;;;;;;;27.93;20.36;102076.41;4990341;28;20048;-68
2023/08/10 07:36:26;;;;;;;8.55;0.40;;;;;;;28.05;19.75;102082.44;4993254;28;20124;-67
2023/08/10 07:38:54;;;;;;;3.03;0.25;;;;;;;28.85;18.19;102085.41;4990184;28;20064;-68
2023/08/10 07:41:19;;;;;;;3.92;0.10;;;;;;;27.93;19.57;102082.63;4990397;28;20045;-68
2023/08/10 07:43:45;;;;;;;5.80;0.20;;;;;;;27.20;19.84;102086.88;4988306;28;20107;-69
2023/08/10 07:46:10;;;;;;;3.13;0.10;;;;;;;28.46;18.83;102081.13;4993702;28;20041;-67
2023/08/10 07:48:36;;;;;;;2.22;0.20;;;;;;;29.57;18.25;102076.25;4990833;28;20053;-68
2023/08/10 07:51:03;;;;;;;3.63;0.20;;;;;;;29.75;18.02;102078.94;4997871;28;20083;-69
2023/08/10 07:53:29;;;;;;;3.50;0.25;;;;;;;29.67;17.61;102072.66;4995569;28;20149;-68
2023/08/10 07:55:56;;;;;;;1.45;0.10;;;;;;;27.15;20.00;102078.41;4992487;28;20037;-68
2023/08/10 07:58:21;;;;;;;4.55;0.45;;;;;;;24.36;23.26;102086.16;4991524;28;20146;-68
2023/08/10 08:00:47;;;;;;;3.08;0.30;;;;;;;24.78;22.69;102089.03;4985597;28;20513;-69
2023/08/10 08:03:13;;;;;;;7.20;0.55;;;;;;;26.07;20.69;102094.25;4989956;28;20046;-68
2023/08/10 08:05:40;;;;;;;3.15;0.10;;;;;;;27.81;19.02;102085.63;4989901;28;20537;-69
2023/08/10 08:08:07;;;;;;;4.78;0.17;;;;;;;28.34;18.61;102083.19;4993428;28;20275;-68
2023/08/10 08:10:36;;;;;;;1.92;0.43;;;;;;;28.58;19.83;102084.44;4996450;28;20046;-68
2023/08/10 08:13:06;;;;;;;3.80;0.32;;;;;;;29.76;18.12;102090.53;5005780;28;20053;-68
2023/08/10 08:15:33;;;;;;;3.50;1.60;;;;;;;29.08;18.60;102086.66;4989644;28;20033;-68
2023/08/10 08:18:37;;;;;;;4.18;1.27;;;;;;;25.80;21.90;102089.44;4988175;28;20497;-67
2023/08/10 08:21:05;;;;;;;6.85;2.70;;;;;;;23.38;24.64;102099.97;4993633;28;20073;-69
2023/08/10 08:23:30;;;;;;;6.20;3.67;;;;;;;22.30;26.06;102098.13;4986727;28;20068;-69
2023/08/10 08:25:56;;;;;;;24.60;10.90;;;;;;;21.50;27.65;102096.47;4982273;28;20570;-68
2023/08/10 08:28:22;;;;;;;5.63;2.13;;;;;;;21.03;28.58;102099.59;4987475;28;20614;-67
2023/08/10 08:30:52;;;;;;;3.33;0.90;;;;;;;20.66;29.61;102102.81;4986906;28;20065;-68
2023/08/10 08:33:18;;;;;;;12.85;5.18;;;;;;;21.45;28.15;102103.03;4988165;28;20042;-68
2023/08/10 08:35:45;;;;;;;13.15;4.50;;;;;;;23.52;25.65;102106.09;4986918;28;20450;-68
2023/08/10 08:38:13;;;;;;;2.70;0.55;;;;;;;25.58;22.51;102097.63;4993231;28;20068;-69
2023/08/10 08:40:39;;;;;;;8.82;2.65;;;;;;;25.63;23.07;102095.41;4996475;28;20031;-68
2023/08/10 08:43:05;;;;;;;5.85;0.93;;;;;;;23.48;25.29;102112.66;4968310;28;20065;-68
2023/08/10 08:45:31;;;;;;;2.38;1.00;;;;;;;21.84;26.96;102112.78;4989428;28;20038;-69
2023/08/10 08:47:57;;;;;;;3.22;1.17;;;;;;;20.91;28.42;102112.75;4985791;28;20096;-68
2023/08/10 08:50:25;;;;;;;7.28;2.95;;;;;;;19.97;30.69;102119.47;4987473;28;20045;-69
2023/08/10 08:52:52;;;;;;;6.80;1.60;;;;;;;20.67;29.91;102109.81;4987417;28;20504;-69
2023/08/10 08:55:18;;;;;;;3.13;0.60;;;;;;;23.24;26.23;102116.16;4987085;28;20038;-68
2023/08/10 08:57:44;;;;;;;5.47;0.20;;;;;;;24.98;23.36;102116.84;4983527;28;20034;-68
2023/08/10 09:00:10;;;;;;;3.58;0.68;;;;;;;24.71;23.71;102114.56;4987117;28;20037;-69
2023/08/10 09:02:36;;;;;;;2.42;0.30;;;;;;;24.97;23.06;102115.16;4988837;28;20112;-68
2023/08/10 09:05:03;;;;;;;2.80;0.28;;;;;;;25.13;22.95;102113.84;4992047;28;20468;-71
2023/08/10 09:07:30;;;;;;;2.58;0.20;;;;;;;25.82;22.84;102110.72;4983572;28;20068;-69
2023/08/10 09:09:56;;;;;;;2.78;0.30;;;;;;;26.10;21.55;102103.84;5002855;28;20140;-69
2023/08/10 09:12:29;;;;;;;4.78;0.40;;;;;;;25.97;21.45;102108.53;4987310;28;20040;-69
2023/08/10 09:15:04;;;;;;;0.80;0.10;;;;;;;24.85;21.65;102110.78;4984850;28;20507;-68
2023/08/10 09:17:31;;;;;;;3.63;0.17;;;;;;;24.53;22.50;102106.22;4988286;28;20119;-67
2023/08/10 09:19:57;;;;;;;0.68;0.20;;;;;;;24.47;23.12;102100.53;4982816;28;20038;-68
2023/08/10 09:22:39;;;;;;;3.28;0.10;;;;;;;23.40;24.29;102106.06;4986512;28;20053;-68
2023/08/10 09:25:06;;;;;;;1.33;0.40;;;;;;;23.27;25.92;102104.41;5002245;28;20100;-68
2023/08/10 09:27:33;;;;;;;0.80;0.10;;;;;;;22.12;25.65;102100.25;4982770;28;20481;-69
2023/08/10 09:30:02;;;;;;;1.83;0.30;;;;;;;22.78;26.12;102109.75;5000899;28;20495;-68
2023/08/10 09:32:27;;;;;;;1.35;0.20;;;;;;;22.91;25.73;102099.03;4986023;28;20413;-67
2023/08/10 09:34:53;;;;;;;6.93;0.20;;;;;;;22.59;25.14;102106.69;4983470;28;20042;-69
2023/08/10 09:37:20;;;;;;;1.55;0.40;;;;;;;22.88;26.38;102109.91;5002285;28;20032;-68
2023/08/10 09:39:46;;;;;;;2.53;0.40;;;;;;;23.46;25.53;102107.41;5001381;28;20030;-68
2023/08/10 09:42:14;;;;;;;3.80;0.35;;;;;;;22.89;26.73;102108.94;4986033;28;20083;-68
2023/08/10 09:44:47;;;;;;;3.90;0.17;;;;;;;21.63;27.86;102108.94;4986533;28;20030;-68
2023/08/10 09:47:14;;;;;;;4.82;0.35;;;;;;;22.69;26.32;102099.72;4989053;28;20109;-67
2023/08/10 09:49:57;;;;;;;2.78;0.25;;;;;;;22.70;27.23;102105.94;4966719;28;20105;-68
2023/08/10 09:52:24;;;;;;;2.15;0.20;;;;;;;22.24;28.21;102103.88;4986936;28;20041;-69
2023/08/10 09:54:53;;;;;;;3.70;0.22;;;;;;;21.67;28.55;102108.63;4984738;28;20420;-70
2023/08/10 09:57:19;;;;;;;3.08;0.20;;;;;;;22.21;29.06;102104.09;4997974;28;20037;-69
2023/08/10 09:59:46;;;;;;;2.58;0.20;;;;;;;23.02;26.78;102100.06;4986336;28;20687;-67
2023/08/10 10:02:12;;;;;;;3.80;0.10;;;;;;;21.86;26.19;102094.06;4981803;28;20519;-67
2023/08/10 10:04:44;;;;;;;3.22;0.20;;;;;;;21.96;26.36;102095.97;4984401;28;20030;-67
2023/08/10 10:07:11;;;;;;;2.35;0.10;;;;;;;22.05;27.02;102099.81;4985791;28;20029;-67
2023/08/10 10:09:39;;;;;;;2.80;0.15;;;;;;;21.87;27.19;102098.41;4982381;28;20034;-68
2023/08/10 10:12:11;;;;;;;3.05;0.30;;;;;;;21.96;26.34;102092.47;4980636;28;20037;-69
2023/08/10 10:14:41;;;;;;;1.48;0.10;;;;;;;22.21;26.24;102104.09;4979110;28;20248;-69
2023/08/10 10:17:09;;;;;;;1.30;0.10;;;;;;;23.25;24.19;102093.00;5000434;28;20607;-69
2023/08/10 10:19:35;;;;;;;2.80;0.10;;;;;;;22.85;23.34;102088.84;4982865;28;20045;-69
2023/08/10 10:22:02;;;;;;;1.83;0.20;;;;;;;23.46;22.87;102085.22;4982220;28;20495;-68
2023/08/10 10:24:29;;;;;;;4.07;0.25;;;;;;;22.91;22.63;102075.03;4981610;28;20356;-68
2023/08/10 10:27:04;;;;;;;2.67;0.40;;;;;;;23.61;23.72;102076.03;4981950;28;20029;-68
2023/08/10 10:29:48;;;;;;;1.40;0.20;;;;;;;22.85;24.59;102083.50;4980438;28;20100;-69
2023/08/10 10:32:16;;;;;;;4.30;0.25;;;;;;;22.12;25.65;102093.13;4998368;28;20448;-68
2023/08/10 10:34:42;;;;;;;0.52;0.10;;;;;;;22.20;24.95;102081.06;4985062;28;20280;-68
2023/08/10 10:37:12;;;;;;;2.85;0.15;;;;;;;22.48;25.64;102087.97;4988739;28;20034;-67
2023/08/10 10:39:45;;;;;;;2.88;0.10;;;;;;;23.02;24.44;102081.38;4998121;28;20557;-68
2023/08/10 10:42:12;;;;;;;0.65;0.10;;;;;;;23.25;23.63;102079.66;4983467;28;21030;-67
2023/08/10 10:44:58;;;;;;;1.38;0.20;;;;;;;23.38;24.38;102064.44;4984622;28;20499;-68
2023/08/10 10:47:37;;;;;;;1.00;0.17;;;;;;;22.94;25.33;102057.94;4995981;28;20507;-68
2023/08/10 10:50:23;;;;;;;1.42;0.35;;;;;;;23.19;23.93;102063.16;4988875;28;20076;-69
2023/08/10 10:52:59;;;;;;;4.20;0.22;;;;;;;24.41;23.19;102064.41;4987410;28;20313;-68
2023/08/10 10:55:27;;;;;;;3.97;0.25;;;;;;;24.18;24.55;102069.78;4988401;28;20026;-68
2023/08/10 10:57:54;;;;;;;4.95;0.10;;;;;;;24.08;23.63;102066.16;4987432;28;20624;-68
2023/08/10 11:00:22;;;;;;;2.00;0.38;;;;;;;23.93;22.09;102070.88;4967263;28;20033;-68
2023/08/10 11:02:48;;;;;;;3.67;0.20;;;;;;;23.83;24.33;102064.53;4981933;28;20061;-68
2023/08/10 11:05:16;;;;;;;1.35;0.10;;;;;;;24.30;22.97;102072.44;4992283;28;20329;-69
2023/08/10 11:07:43;;;;;;;0.82;0.10;;;;;;;23.92;22.83;102068.34;5005051;28;20486;-68
2023/08/10 11:10:10;;;;;;;1.17;0.20;;;;;;;23.38;24.18;102070.63;4990314;28;20022;-68
2023/08/10 11:12:41;;;;;;;1.63;0.20;;;;;;;24.03;22.96;102066.53;4986716;28;20026;-68
2023/08/10 11:15:08;;;;;;;3.85;0.20;;;;;;;24.24;23.85;102066.63;4985670;28;20037;-68
2023/08/10 11:17:36;;;;;;;3.65;0.25;;;;;;;23.97;23.72;102066.16;4989139;28;20050;-68
2023/08/10 11:20:07;;;;;;;3.85;0.10;;;;;;;24.43;22.59;102058.00;4990046;28;20129;-67
2023/08/10 11:22:36;;;;;;;1.75;0.30;;;;;;;24.51;23.40;102054.72;4988348;28;20033;-68
2023/08/10 11:25:08;;;;;;;1.65;0.20;;;;;;;24.17;23.68;102062.75;4988565;28;20095;-67
2023/08/10 11:27:35;;;;;;;4.13;0.30;;;;;;;23.16;24.65;102059.84;4980228;28;20592;-68